sensor_id;sensor_type;location;lat;lon;timestamp;temperature;humidity
26599;DHT22;14240;51.064;16.612;2023-07-13T00:02:21;21.90;99.90
26599;DHT22;14240;51.064;16.612;2023-07-13T00:04:47;21.90;99.90
26599;DHT22;14240;51.064;16.612;2023-07-13T00:07:13;21.80;99.90
26599;DHT22;14240;51.064;16.612;2023-07-13T00:09:40;21.80;99.90
26599;DHT22;14240;51.064;16.612;2023-07-13T00:12:26;21.80;99.90
26599;DHT22;14240;51.064;16.612;2023-07-13T00:14:51;21.70;99.90
26599;DHT22;14240;51.064;16.612;2023-07-13T00:17:17;21.70;99.90
26599;DHT22;14240;51.064;16.612;2023-07-13T00:19:43;21.70;99.90
26599;DHT22;14240;51.064;16.612;2023-07-13T00:22:08;21.60;99.90
26599;DHT22;14240;51.064;16.612;2023-07-13T00:24:34;21.60;99.90
26599;DHT22;14240;51.064;16.612;2023-07-13T00:27:01;21.60;99.90
26599;DHT22;14240;51.064;16.612;2023-07-13T00:29:26;21.50;99.90
26599;DHT22;14240;51.064;16.612;2023-07-13T00:31:52;21.50;99.90
26599;DHT22;14240;51.064;16.612;2023-07-13T00:34:18;21.50;99.90
26599;DHT22;14240;51.064;16.612;2023-07-13T00:36:43;21.50;99.90
26599;DHT22;14240;51.064;16.612;2023-07-13T00:39:09;21.40;99.90
26599;DHT22;14240;51.064;16.612;2023-07-13T00:41:34;21.40;99.90
26599;DHT22;14240;51.064;16.612;2023-07-13T00:44:02;21.40;99.90
26599;DHT22;14240;51.064;16.612;2023-07-13T00:46:34;21.30;99.90
26599;DHT22;14240;51.064;16.612;2023-07-13T00:49:02;21.30;99.90
26599;DHT22;14240;51.064;16.612;2023-07-13T00:52:00;21.30;99.90
26599;DHT22;14240;51.064;16.612;2023-07-13T00:54:32;21.20;99.90
26599;DHT22;14240;51.064;16.612;2023-07-13T00:57:02;21.20;99.90
26599;DHT22;14240;51.064;16.612;2023-07-13T00:59:28;21.10;99.90
26599;DHT22;14240;51.064;16.612;2023-07-13T01:01:55;21.10;99.90
26599;DHT22;14240;51.064;16.612;2023-07-13T01:04:20;21.20;99.90
26599;DHT22;14240;51.064;16.612;2023-07-13T01:06:48;21.10;99.90
26599;DHT22;14240;51.064;16.612;2023-07-13T01:09:14;21.10;99.90
26599;DHT22;14240;51.064;16.612;2023-07-13T01:11:41;21.10;99.90
26599;DHT22;14240;51.064;16.612;2023-07-13T01:14:08;21.10;99.90
26599;DHT22;14240;51.064;16.612;2023-07-13T01:16:36;21.10;99.90
26599;DHT22;14240;51.064;16.612;2023-07-13T01:21:52;21.00;99.90
26599;DHT22;14240;51.064;16.612;2023-07-13T01:24:17;21.00;99.90
26599;DHT22;14240;51.064;16.612;2023-07-13T01:26:43;21.00;99.90
26599;DHT22;14240;51.064;16.612;2023-07-13T01:29:09;21.00;99.90
26599;DHT22;14240;51.064;16.612;2023-07-13T01:31:34;21.00;99.90
26599;DHT22;14240;51.064;16.612;2023-07-13T01:34:00;21.00;99.90
26599;DHT22;14240;51.064;16.612;2023-07-13T01:36:26;20.90;99.90
26599;DHT22;14240;51.064;16.612;2023-07-13T01:38:51;20.90;99.90
26599;DHT22;14240;51.064;16.612;2023-07-13T01:41:17;20.80;99.90
26599;DHT22;14240;51.064;16.612;2023-07-13T01:43:43;20.70;99.90
26599;DHT22;14240;51.064;16.612;2023-07-13T01:46:09;20.70;99.90
26599;DHT22;14240;51.064;16.612;2023-07-13T01:48:34;20.80;99.90
26599;DHT22;14240;51.064;16.612;2023-07-13T01:51:00;20.70;99.90
26599;DHT22;14240;51.064;16.612;2023-07-13T01:53:25;20.60;99.90
26599;DHT22;14240;51.064;16.612;2023-07-13T01:55:52;20.50;99.90
26599;DHT22;14240;51.064;16.612;2023-07-13T01:58:18;20.50;99.90
26599;DHT22;14240;51.064;16.612;2023-07-13T02:00:43;20.50;99.90
26599;DHT22;14240;51.064;16.612;2023-07-13T02:03:09;20.40;99.90
26599;DHT22;14240;51.064;16.612;2023-07-13T02:05:35;20.40;99.90
26599;DHT22;14240;51.064;16.612;2023-07-13T02:08:01;20.40;99.90
26599;DHT22;14240;51.064;16.612;2023-07-13T02:10:27;20.40;99.90
26599;DHT22;14240;51.064;16.612;2023-07-13T02:12:53;20.30;99.90
26599;DHT22;14240;51.064;16.612;2023-07-13T02:15:19;20.40;99.90
26599;DHT22;14240;51.064;16.612;2023-07-13T02:17:46;20.30;99.90
26599;DHT22;14240;51.064;16.612;2023-07-13T02:20:11;20.30;99.90
26599;DHT22;14240;51.064;16.612;2023-07-13T02:22:37;20.30;99.90
26599;DHT22;14240;51.064;16.612;2023-07-13T02:25:03;20.30;99.90
26599;DHT22;14240;51.064;16.612;2023-07-13T02:27:28;20.30;99.90
26599;DHT22;14240;51.064;16.612;2023-07-13T02:29:54;20.20;99.90
26599;DHT22;14240;51.064;16.612;2023-07-13T02:32:20;20.20;99.90
26599;DHT22;14240;51.064;16.612;2023-07-13T02:34:45;20.30;99.90
26599;DHT22;14240;51.064;16.612;2023-07-13T02:37:11;20.20;99.90
26599;DHT22;14240;51.064;16.612;2023-07-13T02:39:37;20.20;99.90
26599;DHT22;14240;51.064;16.612;2023-07-13T02:42:03;20.20;99.90
26599;DHT22;14240;51.064;16.612;2023-07-13T02:44:29;20.20;99.90
26599;DHT22;14240;51.064;16.612;2023-07-13T02:46:54;20.10;99.90
26599;DHT22;14240;51.064;16.612;2023-07-13T02:49:20;20.10;99.90
26599;DHT22;14240;51.064;16.612;2023-07-13T02:51:46;20.00;99.90
26599;DHT22;14240;51.064;16.612;2023-07-13T02:54:11;20.10;99.90
26599;DHT22;14240;51.064;16.612;2023-07-13T02:56:38;20.00;99.90
26599;DHT22;14240;51.064;16.612;2023-07-13T02:59:04;20.00;99.90
26599;DHT22;14240;51.064;16.612;2023-07-13T03:01:30;19.90;99.90
26599;DHT22;14240;51.064;16.612;2023-07-13T03:03:58;20.00;99.90
26599;DHT22;14240;51.064;16.612;2023-07-13T03:06:23;20.00;99.90
26599;DHT22;14240;51.064;16.612;2023-07-13T03:08:50;20.00;99.90
26599;DHT22;14240;51.064;16.612;2023-07-13T03:11:18;20.00;99.90
26599;DHT22;14240;51.064;16.612;2023-07-13T03:13:44;20.00;99.90
26599;DHT22;14240;51.064;16.612;2023-07-13T03:16:11;19.90;99.90
26599;DHT22;14240;51.064;16.612;2023-07-13T03:18:37;20.00;99.90
26599;DHT22;14240;51.064;16.612;2023-07-13T03:21:03;19.90;99.90
26599;DHT22;14240;51.064;16.612;2023-07-13T03:23:29;19.90;99.90
26599;DHT22;14240;51.064;16.612;2023-07-13T03:26:06;19.90;99.90
26599;DHT22;14240;51.064;16.612;2023-07-13T03:28:32;19.90;99.90
26599;DHT22;14240;51.064;16.612;2023-07-13T03:31:07;19.90;99.90
26599;DHT22;14240;51.064;16.612;2023-07-13T03:33:33;19.90;99.90
26599;DHT22;14240;51.064;16.612;2023-07-13T03:35:59;19.90;99.90
26599;DHT22;14240;51.064;16.612;2023-07-13T03:38:25;19.90;99.90
26599;DHT22;14240;51.064;16.612;2023-07-13T03:40:52;19.90;99.90
26599;DHT22;14240;51.064;16.612;2023-07-13T03:43:18;19.90;99.90
26599;DHT22;14240;51.064;16.612;2023-07-13T03:45:43;19.90;99.90
26599;DHT22;14240;51.064;16.612;2023-07-13T03:48:09;19.90;99.90
26599;DHT22;14240;51.064;16.612;2023-07-13T03:50:35;19.90;99.90
26599;DHT22;14240;51.064;16.612;2023-07-13T03:53:00;19.90;99.90
26599;DHT22;14240;51.064;16.612;2023-07-13T03:55:26;19.80;99.90
26599;DHT22;14240;51.064;16.612;2023-07-13T03:57:57;19.80;99.90
26599;DHT22;14240;51.064;16.612;2023-07-13T04:00:23;19.80;99.90
26599;DHT22;14240;51.064;16.612;2023-07-13T04:02:50;19.70;99.90
26599;DHT22;14240;51.064;16.612;2023-07-13T04:05:15;19.60;99.90
26599;DHT22;14240;51.064;16.612;2023-07-13T04:07:41;19.50;99.90
26599;DHT22;14240;51.064;16.612;2023-07-13T04:10:07;19.40;99.90
26599;DHT22;14240;51.064;16.612;2023-07-13T04:12:33;19.30;99.90
26599;DHT22;14240;51.064;16.612;2023-07-13T04:14:58;19.20;99.90
26599;DHT22;14240;51.064;16.612;2023-07-13T04:17:24;19.00;99.90
26599;DHT22;14240;51.064;16.612;2023-07-13T04:19:50;18.80;99.90
26599;DHT22;14240;51.064;16.612;2023-07-13T04:22:15;18.70;99.90
26599;DHT22;14240;51.064;16.612;2023-07-13T04:24:41;18.60;99.90
26599;DHT22;14240;51.064;16.612;2023-07-13T04:27:07;18.60;99.90
26599;DHT22;14240;51.064;16.612;2023-07-13T04:29:33;18.60;99.90
26599;DHT22;14240;51.064;16.612;2023-07-13T04:31:58;18.50;99.90
26599;DHT22;14240;51.064;16.612;2023-07-13T04:34:24;18.40;99.90
26599;DHT22;14240;51.064;16.612;2023-07-13T04:36:50;18.40;99.90
26599;DHT22;14240;51.064;16.612;2023-07-13T04:39:16;18.30;99.90
26599;DHT22;14240;51.064;16.612;2023-07-13T04:41:41;18.30;99.90
26599;DHT22;14240;51.064;16.612;2023-07-13T04:44:07;18.30;99.90
26599;DHT22;14240;51.064;16.612;2023-07-13T04:46:33;18.30;99.90
26599;DHT22;14240;51.064;16.612;2023-07-13T04:48:58;18.30;99.90
26599;DHT22;14240;51.064;16.612;2023-07-13T04:51:24;18.30;99.90
26599;DHT22;14240;51.064;16.612;2023-07-13T04:53:50;18.30;99.90
26599;DHT22;14240;51.064;16.612;2023-07-13T04:56:15;18.20;99.90
26599;DHT22;14240;51.064;16.612;2023-07-13T04:58:41;18.30;99.90
26599;DHT22;14240;51.064;16.612;2023-07-13T05:01:07;18.30;99.90
26599;DHT22;14240;51.064;16.612;2023-07-13T05:03:34;18.30;99.90
26599;DHT22;14240;51.064;16.612;2023-07-13T05:06:06;18.30;99.90
26599;DHT22;14240;51.064;16.612;2023-07-13T05:08:32;18.30;99.90
26599;DHT22;14240;51.064;16.612;2023-07-13T05:11:00;18.30;99.90
26599;DHT22;14240;51.064;16.612;2023-07-13T05:13:26;18.30;99.90
26599;DHT22;14240;51.064;16.612;2023-07-13T05:16:04;18.30;99.90
26599;DHT22;14240;51.064;16.612;2023-07-13T05:18:31;18.30;99.90
26599;DHT22;14240;51.064;16.612;2023-07-13T05:21:06;18.20;99.90
26599;DHT22;14240;51.064;16.612;2023-07-13T05:23:33;18.20;99.90
26599;DHT22;14240;51.064;16.612;2023-07-13T05:25:59;18.20;99.90
26599;DHT22;14240;51.064;16.612;2023-07-13T05:28:25;18.10;99.90
26599;DHT22;14240;51.064;16.612;2023-07-13T05:30:51;18.10;99.90
26599;DHT22;14240;51.064;16.612;2023-07-13T05:33:17;18.10;99.90
26599;DHT22;14240;51.064;16.612;2023-07-13T05:35:43;18.10;99.90
26599;DHT22;14240;51.064;16.612;2023-07-13T05:38:08;18.00;99.90
26599;DHT22;14240;51.064;16.612;2023-07-13T05:40:34;18.10;99.90
26599;DHT22;14240;51.064;16.612;2023-07-13T05:42:59;18.10;99.90
26599;DHT22;14240;51.064;16.612;2023-07-13T05:45:25;18.10;99.90
26599;DHT22;14240;51.064;16.612;2023-07-13T05:47:55;18.20;99.90
26599;DHT22;14240;51.064;16.612;2023-07-13T05:50:20;18.30;99.90
26599;DHT22;14240;51.064;16.612;2023-07-13T05:52:46;18.30;99.90
26599;DHT22;14240;51.064;16.612;2023-07-13T05:55:12;18.40;99.90
26599;DHT22;14240;51.064;16.612;2023-07-13T05:57:38;18.50;99.90
26599;DHT22;14240;51.064;16.612;2023-07-13T06:00:04;18.60;99.90
26599;DHT22;14240;51.064;16.612;2023-07-13T06:02:30;18.60;99.90
26599;DHT22;14240;51.064;16.612;2023-07-13T06:04:55;18.60;99.90
26599;DHT22;14240;51.064;16.612;2023-07-13T06:07:21;18.70;99.90
26599;DHT22;14240;51.064;16.612;2023-07-13T06:09:47;18.80;99.90
26599;DHT22;14240;51.064;16.612;2023-07-13T06:12:12;18.90;99.90
26599;DHT22;14240;51.064;16.612;2023-07-13T06:14:38;19.00;99.90
26599;DHT22;14240;51.064;16.612;2023-07-13T06:17:04;19.10;99.90
26599;DHT22;14240;51.064;16.612;2023-07-13T06:19:29;19.10;99.90
26599;DHT22;14240;51.064;16.612;2023-07-13T06:21:55;19.10;99.90
26599;DHT22;14240;51.064;16.612;2023-07-13T06:24:21;19.10;99.90
26599;DHT22;14240;51.064;16.612;2023-07-13T06:26:47;19.00;99.90
26599;DHT22;14240;51.064;16.612;2023-07-13T06:29:12;18.90;99.90
26599;DHT22;14240;51.064;16.612;2023-07-13T06:31:38;18.90;99.90
26599;DHT22;14240;51.064;16.612;2023-07-13T06:34:03;18.90;99.90
26599;DHT22;14240;51.064;16.612;2023-07-13T06:36:29;18.90;99.90
26599;DHT22;14240;51.064;16.612;2023-07-13T06:38:54;18.80;99.90
26599;DHT22;14240;51.064;16.612;2023-07-13T06:41:20;18.80;99.90
26599;DHT22;14240;51.064;16.612;2023-07-13T06:43:47;18.80;99.90
26599;DHT22;14240;51.064;16.612;2023-07-13T06:46:13;18.70;99.90
26599;DHT22;14240;51.064;16.612;2023-07-13T06:48:38;18.70;99.90
26599;DHT22;14240;51.064;16.612;2023-07-13T06:51:04;18.60;99.90
26599;DHT22;14240;51.064;16.612;2023-07-13T06:53:30;18.70;99.90
26599;DHT22;14240;51.064;16.612;2023-07-13T06:55:55;18.60;99.90
26599;DHT22;14240;51.064;16.612;2023-07-13T06:58:21;18.50;99.90
26599;DHT22;14240;51.064;16.612;2023-07-13T07:00:51;18.50;99.90
26599;DHT22;14240;51.064;16.612;2023-07-13T07:03:17;18.50;99.90
26599;DHT22;14240;51.064;16.612;2023-07-13T07:05:42;18.50;99.90
26599;DHT22;14240;51.064;16.612;2023-07-13T07:08:08;18.40;99.90
26599;DHT22;14240;51.064;16.612;2023-07-13T07:10:35;18.30;99.90
26599;DHT22;14240;51.064;16.612;2023-07-13T07:13:01;18.30;99.90
26599;DHT22;14240;51.064;16.612;2023-07-13T07:15:27;18.20;99.90
26599;DHT22;14240;51.064;16.612;2023-07-13T07:17:52;18.10;99.90
26599;DHT22;14240;51.064;16.612;2023-07-13T07:20:19;18.10;99.90
26599;DHT22;14240;51.064;16.612;2023-07-13T07:22:45;18.20;99.90
26599;DHT22;14240;51.064;16.612;2023-07-13T07:25:11;18.20;99.90
26599;DHT22;14240;51.064;16.612;2023-07-13T07:27:37;18.30;99.90
26599;DHT22;14240;51.064;16.612;2023-07-13T07:30:03;18.40;99.90
26599;DHT22;14240;51.064;16.612;2023-07-13T07:32:29;18.40;99.90
26599;DHT22;14240;51.064;16.612;2023-07-13T07:34:59;18.50;99.90
26599;DHT22;14240;51.064;16.612;2023-07-13T07:37:25;18.60;99.90
26599;DHT22;14240;51.064;16.612;2023-07-13T07:39:50;18.80;99.90
26599;DHT22;14240;51.064;16.612;2023-07-13T07:42:16;18.90;99.90
26599;DHT22;14240;51.064;16.612;2023-07-13T07:44:42;19.00;99.90
26599;DHT22;14240;51.064;16.612;2023-07-13T07:47:08;19.10;99.90
26599;DHT22;14240;51.064;16.612;2023-07-13T07:49:35;19.20;99.90
26599;DHT22;14240;51.064;16.612;2023-07-13T07:52:01;19.30;99.90
26599;DHT22;14240;51.064;16.612;2023-07-13T07:54:27;19.40;99.90
26599;DHT22;14240;51.064;16.612;2023-07-13T07:56:52;19.50;99.90
26599;DHT22;14240;51.064;16.612;2023-07-13T07:59:19;19.60;99.90
26599;DHT22;14240;51.064;16.612;2023-07-13T08:01:44;19.70;99.90
26599;DHT22;14240;51.064;16.612;2023-07-13T08:04:12;19.80;99.90
26599;DHT22;14240;51.064;16.612;2023-07-13T08:06:37;20.00;99.90
26599;DHT22;14240;51.064;16.612;2023-07-13T08:09:03;19.90;99.90
26599;DHT22;14240;51.064;16.612;2023-07-13T08:11:30;20.00;99.90
26599;DHT22;14240;51.064;16.612;2023-07-13T08:13:55;20.00;99.90
26599;DHT22;14240;51.064;16.612;2023-07-13T08:16:22;20.10;99.90
26599;DHT22;14240;51.064;16.612;2023-07-13T08:18:47;20.10;99.90
26599;DHT22;14240;51.064;16.612;2023-07-13T08:21:13;20.30;99.90
26599;DHT22;14240;51.064;16.612;2023-07-13T08:23:39;20.30;99.90
26599;DHT22;14240;51.064;16.612;2023-07-13T08:26:04;20.50;99.90
26599;DHT22;14240;51.064;16.612;2023-07-13T08:28:30;20.50;99.90
26599;DHT22;14240;51.064;16.612;2023-07-13T08:31:02;20.60;99.90
26599;DHT22;14240;51.064;16.612;2023-07-13T08:33:28;20.70;99.90
26599;DHT22;14240;51.064;16.612;2023-07-13T08:35:53;20.80;99.90
26599;DHT22;14240;51.064;16.612;2023-07-13T08:38:19;20.80;99.90
26599;DHT22;14240;51.064;16.612;2023-07-13T08:40:50;21.00;99.90
26599;DHT22;14240;51.064;16.612;2023-07-13T08:43:28;21.10;99.90
26599;DHT22;14240;51.064;16.612;2023-07-13T08:46:09;21.20;99.90
26599;DHT22;14240;51.064;16.612;2023-07-13T08:48:52;21.20;99.90
26599;DHT22;14240;51.064;16.612;2023-07-13T08:53:58;21.30;99.90
26599;DHT22;14240;51.064;16.612;2023-07-13T08:56:29;21.30;99.90
26599;DHT22;14240;51.064;16.612;2023-07-13T08:58:57;21.40;99.90
26599;DHT22;14240;51.064;16.612;2023-07-13T09:04:23;21.50;99.90
26599;DHT22;14240;51.064;16.612;2023-07-13T09:12:31;21.80;99.90
26599;DHT22;14240;51.064;16.612;2023-07-13T09:14:59;21.90;99.90
26599;DHT22;14240;51.064;16.612;2023-07-13T09:17:37;21.90;99.90
26599;DHT22;14240;51.064;16.612;2023-07-13T09:20:12;22.10;99.90
26599;DHT22;14240;51.064;16.612;2023-07-13T09:22:42;22.10;99.90
26599;DHT22;14240;51.064;16.612;2023-07-13T09:25:32;22.20;99.90
26599;DHT22;14240;51.064;16.612;2023-07-13T09:28:19;22.30;99.90
26599;DHT22;14240;51.064;16.612;2023-07-13T09:33:22;22.50;99.90
26599;DHT22;14240;51.064;16.612;2023-07-13T09:35:48;22.60;99.90
26599;DHT22;14240;51.064;16.612;2023-07-13T09:38:18;22.70;99.90
26599;DHT22;14240;51.064;16.612;2023-07-13T09:43:37;22.90;99.90
26599;DHT22;14240;51.064;16.612;2023-07-13T09:46:03;23.10;99.90
26599;DHT22;14240;51.064;16.612;2023-07-13T09:48:35;23.20;99.90
26599;DHT22;14240;51.064;16.612;2023-07-13T09:51:12;23.30;99.90
26599;DHT22;14240;51.064;16.612;2023-07-13T09:53:44;23.40;99.90
26599;DHT22;14240;51.064;16.612;2023-07-13T09:56:20;23.50;99.90
26599;DHT22;14240;51.064;16.612;2023-07-13T09:58:46;23.60;99.90
26599;DHT22;14240;51.064;16.612;2023-07-13T10:01:12;23.70;99.90
26599;DHT22;14240;51.064;16.612;2023-07-13T10:03:38;23.90;99.90
26599;DHT22;14240;51.064;16.612;2023-07-13T10:06:16;24.00;99.90
26599;DHT22;14240;51.064;16.612;2023-07-13T10:08:43;24.20;99.90
26599;DHT22;14240;51.064;16.612;2023-07-13T10:14:02;24.30;99.90
26599;DHT22;14240;51.064;16.612;2023-07-13T10:16:35;24.50;99.90
26599;DHT22;14240;51.064;16.612;2023-07-13T10:19:02;24.60;99.90
26599;DHT22;14240;51.064;16.612;2023-07-13T10:21:48;24.70;99.90
26599;DHT22;14240;51.064;16.612;2023-07-13T10:24:21;24.80;99.90
26599;DHT22;14240;51.064;16.612;2023-07-13T10:29:28;24.70;99.90
26599;DHT22;14240;51.064;16.612;2023-07-13T10:31:54;24.70;99.90
26599;DHT22;14240;51.064;16.612;2023-07-13T10:34:20;24.70;99.90
26599;DHT22;14240;51.064;16.612;2023-07-13T10:36:48;24.70;99.90
26599;DHT22;14240;51.064;16.612;2023-07-13T10:39:20;24.70;99.90
26599;DHT22;14240;51.064;16.612;2023-07-13T10:41:54;24.60;99.90
26599;DHT22;14240;51.064;16.612;2023-07-13T10:44:26;24.70;99.90
26599;DHT22;14240;51.064;16.612;2023-07-13T10:46:59;24.70;99.90
26599;DHT22;14240;51.064;16.612;2023-07-13T10:49:28;24.80;99.90
26599;DHT22;14240;51.064;16.612;2023-07-13T10:51:54;24.80;99.90
26599;DHT22;14240;51.064;16.612;2023-07-13T10:54:28;24.80;99.90
26599;DHT22;14240;51.064;16.612;2023-07-13T10:57:17;24.80;99.90
26599;DHT22;14240;51.064;16.612;2023-07-13T11:00:08;24.80;99.90
26599;DHT22;14240;51.064;16.612;2023-07-13T11:02:34;24.90;99.90
26599;DHT22;14240;51.064;16.612;2023-07-13T11:05:26;24.90;99.90
26599;DHT22;14240;51.064;16.612;2023-07-13T11:08:19;25.10;99.90
26599;DHT22;14240;51.064;16.612;2023-07-13T11:10:52;24.90;99.90
26599;DHT22;14240;51.064;16.612;2023-07-13T11:18:53;24.90;99.90
26599;DHT22;14240;51.064;16.612;2023-07-13T11:21:33;25.00;99.90
26599;DHT22;14240;51.064;16.612;2023-07-13T11:24:17;25.00;99.90
26599;DHT22;14240;51.064;16.612;2023-07-13T11:26:51;25.10;99.90
26599;DHT22;14240;51.064;16.612;2023-07-13T11:29:33;25.20;99.90
26599;DHT22;14240;51.064;16.612;2023-07-13T11:32:10;25.20;99.90
26599;DHT22;14240;51.064;16.612;2023-07-13T11:34:47;25.30;99.90
26599;DHT22;14240;51.064;16.612;2023-07-13T11:37:16;25.30;99.90
26599;DHT22;14240;51.064;16.612;2023-07-13T11:39:44;25.50;99.90
26599;DHT22;14240;51.064;16.612;2023-07-13T11:42:16;25.50;99.90
26599;DHT22;14240;51.064;16.612;2023-07-13T11:44:52;25.60;99.90
26599;DHT22;14240;51.064;16.612;2023-07-13T11:47:22;25.70;99.90
26599;DHT22;14240;51.064;16.612;2023-07-13T11:49:53;25.70;99.90
26599;DHT22;14240;51.064;16.612;2023-07-13T11:52:31;25.80;99.90
26599;DHT22;14240;51.064;16.612;2023-07-13T11:55:00;25.90;99.90
26599;DHT22;14240;51.064;16.612;2023-07-13T11:57:32;26.00;99.90
26599;DHT22;14240;51.064;16.612;2023-07-13T12:00:28;26.00;99.90
26599;DHT22;14240;51.064;16.612;2023-07-13T12:02:54;26.10;99.90
26599;DHT22;14240;51.064;16.612;2023-07-13T12:05:21;26.20;99.90
26599;DHT22;14240;51.064;16.612;2023-07-13T12:07:47;26.20;99.90
26599;DHT22;14240;51.064;16.612;2023-07-13T12:10:25;26.30;99.90
26599;DHT22;14240;51.064;16.612;2023-07-13T12:12:57;26.40;99.90
26599;DHT22;14240;51.064;16.612;2023-07-13T12:15:43;26.50;99.70
26599;DHT22;14240;51.064;16.612;2023-07-13T12:18:19;26.50;99.60
26599;DHT22;14240;51.064;16.612;2023-07-13T12:20:46;26.60;99.90
26599;DHT22;14240;51.064;16.612;2023-07-13T12:23:32;26.70;99.60
26599;DHT22;14240;51.064;16.612;2023-07-13T12:26:00;26.70;99.40
26599;DHT22;14240;51.064;16.612;2023-07-13T12:28:36;26.70;99.50
26599;DHT22;14240;51.064;16.612;2023-07-13T12:31:05;26.70;98.60
26599;DHT22;14240;51.064;16.612;2023-07-13T12:33:33;26.70;97.50
26599;DHT22;14240;51.064;16.612;2023-07-13T12:36:05;26.80;97.80
26599;DHT22;14240;51.064;16.612;2023-07-13T12:38:32;26.70;97.70
26599;DHT22;14240;51.064;16.612;2023-07-13T12:40:58;26.80;96.80
26599;DHT22;14240;51.064;16.612;2023-07-13T12:43:24;26.90;96.70
26599;DHT22;14240;51.064;16.612;2023-07-13T12:45:58;26.90;96.50
26599;DHT22;14240;51.064;16.612;2023-07-13T12:48:24;27.00;97.10
26599;DHT22;14240;51.064;16.612;2023-07-13T12:50:50;26.90;96.90
26599;DHT22;14240;51.064;16.612;2023-07-13T12:53:19;27.00;97.20
26599;DHT22;14240;51.064;16.612;2023-07-13T12:56:02;27.00;97.10
26599;DHT22;14240;51.064;16.612;2023-07-13T12:58:32;27.10;96.50
26599;DHT22;14240;51.064;16.612;2023-07-13T13:00:59;27.20;96.90
26599;DHT22;14240;51.064;16.612;2023-07-13T13:03:31;27.30;96.20
26599;DHT22;14240;51.064;16.612;2023-07-13T13:06:03;27.30;95.10
26599;DHT22;14240;51.064;16.612;2023-07-13T13:08:34;27.30;94.80
26599;DHT22;14240;51.064;16.612;2023-07-13T13:11:01;27.30;94.10
26599;DHT22;14240;51.064;16.612;2023-07-13T13:13:27;27.30;94.40
26599;DHT22;14240;51.064;16.612;2023-07-13T13:15:53;27.40;94.20
26599;DHT22;14240;51.064;16.612;2023-07-13T13:18:21;27.40;93.00
26599;DHT22;14240;51.064;16.612;2023-07-13T13:20:48;27.40;92.20
26599;DHT22;14240;51.064;16.612;2023-07-13T13:23:18;27.50;92.10
26599;DHT22;14240;51.064;16.612;2023-07-13T13:25:49;27.40;91.40
26599;DHT22;14240;51.064;16.612;2023-07-13T13:28:17;27.40;90.50
26599;DHT22;14240;51.064;16.612;2023-07-13T13:30:45;27.40;90.20
26599;DHT22;14240;51.064;16.612;2023-07-13T13:33:13;27.40;90.90
26599;DHT22;14240;51.064;16.612;2023-07-13T13:35:40;27.40;90.70
26599;DHT22;14240;51.064;16.612;2023-07-13T13:38:11;27.50;90.60
26599;DHT22;14240;51.064;16.612;2023-07-13T13:40:37;27.50;90.40
26599;DHT22;14240;51.064;16.612;2023-07-13T13:43:10;27.60;90.40
26599;DHT22;14240;51.064;16.612;2023-07-13T13:45:39;27.60;90.00
26599;DHT22;14240;51.064;16.612;2023-07-13T13:48:05;27.70;89.40
26599;DHT22;14240;51.064;16.612;2023-07-13T13:50:30;27.70;89.60
26599;DHT22;14240;51.064;16.612;2023-07-13T13:52:56;27.70;89.80
26599;DHT22;14240;51.064;16.612;2023-07-13T13:55:22;27.70;90.00
26599;DHT22;14240;51.064;16.612;2023-07-13T13:57:49;27.80;88.40
26599;DHT22;14240;51.064;16.612;2023-07-13T14:00:16;27.90;88.30
26599;DHT22;14240;51.064;16.612;2023-07-13T14:02:46;27.90;87.90
26599;DHT22;14240;51.064;16.612;2023-07-13T14:05:14;28.00;87.10
26599;DHT22;14240;51.064;16.612;2023-07-13T14:07:41;28.00;87.10
26599;DHT22;14240;51.064;16.612;2023-07-13T14:10:17;28.10;86.40
26599;DHT22;14240;51.064;16.612;2023-07-13T14:12:45;28.00;85.10
26599;DHT22;14240;51.064;16.612;2023-07-13T14:15:26;28.00;86.70
26599;DHT22;14240;51.064;16.612;2023-07-13T14:17:53;28.00;86.40
26599;DHT22;14240;51.064;16.612;2023-07-13T14:20:21;28.00;85.80
26599;DHT22;14240;51.064;16.612;2023-07-13T14:22:48;28.00;85.80
26599;DHT22;14240;51.064;16.612;2023-07-13T14:25:16;28.00;86.40
26599;DHT22;14240;51.064;16.612;2023-07-13T14:27:42;28.10;86.50
26599;DHT22;14240;51.064;16.612;2023-07-13T14:30:34;28.10;87.70
26599;DHT22;14240;51.064;16.612;2023-07-13T14:33:00;28.10;86.70
26599;DHT22;14240;51.064;16.612;2023-07-13T14:35:25;28.10;85.40
26599;DHT22;14240;51.064;16.612;2023-07-13T14:37:51;28.20;86.10
26599;DHT22;14240;51.064;16.612;2023-07-13T14:40:28;28.20;84.60
26599;DHT22;14240;51.064;16.612;2023-07-13T14:42:54;28.10;84.50
26599;DHT22;14240;51.064;16.612;2023-07-13T14:45:20;28.00;85.50
26599;DHT22;14240;51.064;16.612;2023-07-13T14:47:46;27.80;85.10
26599;DHT22;14240;51.064;16.612;2023-07-13T14:50:31;27.70;86.80
26599;DHT22;14240;51.064;16.612;2023-07-13T14:52:57;27.50;87.40
26599;DHT22;14240;51.064;16.612;2023-07-13T14:55:23;27.40;89.00
26599;DHT22;14240;51.064;16.612;2023-07-13T14:57:51;27.40;89.10
26599;DHT22;14240;51.064;16.612;2023-07-13T15:00:19;27.30;88.90
26599;DHT22;14240;51.064;16.612;2023-07-13T15:02:54;27.20;89.00
26599;DHT22;14240;51.064;16.612;2023-07-13T15:05:23;27.20;89.70
26599;DHT22;14240;51.064;16.612;2023-07-13T15:07:50;27.10;89.40
26599;DHT22;14240;51.064;16.612;2023-07-13T15:12:43;27.10;86.40
26599;DHT22;14240;51.064;16.612;2023-07-13T15:15:09;27.00;86.60
26599;DHT22;14240;51.064;16.612;2023-07-13T15:17:45;27.00;86.10
26599;DHT22;14240;51.064;16.612;2023-07-13T15:22:42;27.00;85.60
26599;DHT22;14240;51.064;16.612;2023-07-13T15:25:21;27.00;86.10
26599;DHT22;14240;51.064;16.612;2023-07-13T15:27:47;27.00;85.30
26599;DHT22;14240;51.064;16.612;2023-07-13T15:30:14;26.90;85.50
26599;DHT22;14240;51.064;16.612;2023-07-13T15:32:44;27.00;85.20
26599;DHT22;14240;51.064;16.612;2023-07-13T15:35:15;26.90;85.60
26599;DHT22;14240;51.064;16.612;2023-07-13T15:37:41;26.90;86.10
26599;DHT22;14240;51.064;16.612;2023-07-13T15:40:08;26.90;86.40
26599;DHT22;14240;51.064;16.612;2023-07-13T15:42:34;26.90;86.20
26599;DHT22;14240;51.064;16.612;2023-07-13T15:45:01;26.90;86.10
26599;DHT22;14240;51.064;16.612;2023-07-13T15:47:27;26.80;86.40
26599;DHT22;14240;51.064;16.612;2023-07-13T15:49:53;26.80;85.90
26599;DHT22;14240;51.064;16.612;2023-07-13T15:52:22;26.80;85.20
26599;DHT22;14240;51.064;16.612;2023-07-13T15:54:48;26.70;85.40
26599;DHT22;14240;51.064;16.612;2023-07-13T15:57:14;26.70;85.50
26599;DHT22;14240;51.064;16.612;2023-07-13T15:59:41;26.60;85.10